Time;durP1;ratioP1;P1;durP2;ratioP2;P2;SDS_P1;SDS_P2;PMS_P1;PMS_P2;Temp;Humidity;BMP_temperature;BMP_pressure;BME280_temperature;BME280_humidity;BME280_pressure;Samples;Min_cycle;Max_cycle;Signal;HPM_P1;HPM_P2
2021/08/14 00:02:21;;;;;;;;;3.00;2.50;;;;;26.90;41.68;102188.28;5015076;28;46943;-74
2021/08/14 00:04:47;;;;;;;;;2.00;2.00;;;;;26.92;41.31;102188.91;5015662;28;45545;-73
2021/08/14 00:07:12;;;;;;;;;4.75;3.00;;;;;26.94;41.82;102194.06;5014764;28;45718;-73
2021/08/14 00:09:38;;;;;;;;;4.25;3.00;;;;;26.93;41.25;102193.22;5014879;28;45504;-73
2021/08/14 00:12:04;;;;;;;;;3.25;3.00;;;;;26.88;41.40;102184.13;5014684;28;45502;-73
2021/08/14 00:14:30;;;;;;;;;2.75;2.00;;;;;26.89;41.25;102177.75;5015094;28;45443;-73
2021/08/14 00:16:55;;;;;;;;;4.50;4.00;;;;;26.81;41.42;102173.31;5015228;28;45403;-73
2021/08/14 00:19:21;;;;;;;;;2.00;2.00;;;;;26.95;41.49;102193.91;5015330;28;45480;-73
2021/08/14 00:21:46;;;;;;;;;2.50;2.50;;;;;26.78;41.12;102163.03;5014371;28;45524;-73
2021/08/14 00:24:11;;;;;;;;;3.00;3.00;;;;;26.91;41.50;102178.41;5014922;28;45350;-73
2021/08/14 00:26:37;;;;;;;;;1.00;1.00;;;;;26.90;41.24;102176.75;5014948;28;45441;-73
2021/08/14 00:29:03;;;;;;;;;2.25;2.25;;;;;26.93;41.18;102182.53;5015155;28;45500;-73
2021/08/14 00:31:28;;;;;;;;;3.50;3.50;;;;;26.88;41.64;102176.13;5014984;28;47178;-73
2021/08/14 00:33:53;;;;;;;;;3.00;2.00;;;;;26.88;41.60;102176.13;5014707;28;45382;-73
2021/08/14 00:36:19;;;;;;;;;2.50;2.00;;;;;26.92;41.64;102180.91;5013824;28;45398;-73
2021/08/14 00:38:44;;;;;;;;;3.50;2.00;;;;;26.94;41.31;102183.38;5014762;28;47784;-73
2021/08/14 00:41:09;;;;;;;;;1.75;1.00;;;;;26.93;41.72;102182.53;5014540;28;45428;-73
2021/08/14 00:43:35;;;;;;;;;2.25;2.25;;;;;26.96;41.31;102192.03;5015239;28;45556;-73
2021/08/14 00:46:01;;;;;;;;;3.00;2.25;;;;;26.90;41.09;102180.25;5014424;28;45632;-73
2021/08/14 00:48:26;;;;;;;;;2.75;2.25;;;;;26.92;41.47;102185.41;5014587;28;45604;-73
2021/08/14 00:50:52;;;;;;;;;3.00;3.00;;;;;26.94;41.44;102181.53;5013904;28;45514;-73
2021/08/14 00:53:18;;;;;;;;;4.50;3.00;;;;;26.94;41.64;102184.22;4998858;28;45371;-73
2021/08/14 00:55:44;;;;;;;;;2.75;2.00;;;;;26.94;41.12;102176.22;5015301;28;45255;-73
2021/08/14 00:58:10;;;;;;;;;2.00;2.00;;;;;26.91;41.05;102176.56;5014342;28;45624;-72
2021/08/14 01:00:37;;;;;;;;;3.00;3.00;;;;;26.94;41.59;102178.03;5014091;28;45356;-73
2021/08/14 01:03:03;;;;;;;;;1.75;1.75;;;;;26.92;41.66;102175.56;5014255;28;47207;-73
2021/08/14 01:05:28;;;;;;;;;5.50;2.25;;;;;26.93;41.24;102179.06;5014222;28;45304;-73
2021/08/14 01:07:54;;;;;;;;;3.00;2.75;;;;;26.93;41.17;102179.88;5014710;28;45435;-73
2021/08/14 01:10:20;;;;;;;;;4.25;3.00;;;;;26.97;41.70;102183.03;5014270;28;45285;-73
2021/08/14 01:12:48;;;;;;;;;3.00;3.00;;;;;26.94;41.21;102172.69;5014135;28;45439;-73
2021/08/14 01:15:13;;;;;;;;;3.00;3.00;;;;;26.96;41.47;102176.84;5014169;28;45416;-73
2021/08/14 01:17:39;;;;;;;;;4.00;4.00;;;;;26.80;41.35;102151.16;5013787;28;45462;-73
2021/08/14 01:20:05;;;;;;;;;2.00;2.00;;;;;26.94;41.25;102160.19;5014458;28;46300;-73
2021/08/14 01:22:30;;;;;;;;;4.00;3.00;;;;;26.98;42.14;102171.34;5012564;28;45448;-73
2021/08/14 01:24:56;;;;;;;;;2.00;2.00;;;;;26.92;41.39;102161.38;5014058;28;45594;-73
2021/08/14 01:27:21;;;;;;;;;4.00;3.00;;;;;26.90;41.45;102153.56;5013971;28;45406;-72
2021/08/14 01:29:46;;;;;;;;;3.50;3.50;;;;;26.87;41.19;102145.06;5013994;28;45390;-73
2021/08/14 01:32:12;;;;;;;;;3.00;2.00;;;;;26.90;41.83;102145.56;5013628;28;45492;-72
2021/08/14 01:34:41;;;;;;;;;4.25;3.25;;;;;26.96;41.64;102149.31;5014700;28;45318;-73
2021/08/14 01:37:08;;;;;;;;;3.00;3.00;;;;;26.94;41.43;102146.84;5013729;28;45461;-73
2021/08/14 01:39:34;;;;;;;;;5.75;2.25;;;;;26.91;41.09;102141.00;5013688;28;45604;-73
2021/08/14 01:42:02;;;;;;;;;2.75;2.00;;;;;26.93;41.09;102145.16;5013602;28;45315;-73
2021/08/14 01:44:29;;;;;;;;;3.00;3.00;;;;;26.77;41.49;102121.31;5013979;28;45267;-73
2021/08/14 01:46:55;;;;;;;;;3.00;3.00;;;;;26.71;41.85;102109.50;5013694;28;45336;-73
2021/08/14 01:49:21;;;;;;;;;2.00;2.00;;;;;26.95;41.51;102142.31;5016718;28;45433;-73
2021/08/14 01:51:47;;;;;;;;;2.50;2.50;;;;;26.95;41.43;102139.66;5016964;28;45386;-73
2021/08/14 01:54:13;;;;;;;;;3.25;2.25;;;;;26.95;41.67;102142.31;5017068;28;45399;-73
2021/08/14 01:56:38;;;;;;;;;3.25;3.25;;;;;26.87;41.31;102131.72;5016895;28;45569;-73
2021/08/14 01:59:05;;;;;;;;;2.75;2.00;;;;;26.91;41.22;102141.84;5017006;28;46142;-73
2021/08/14 02:01:30;;;;;;;;;4.00;3.00;;;;;26.90;41.62;102139.38;5014948;28;45568;-73
2021/08/14 02:03:56;;;;;;;;;4.00;2.00;;;;;26.91;41.74;102141.84;5017026;28;45739;-73
2021/08/14 02:06:23;;;;;;;;;2.25;2.25;;;;;26.90;41.67;102134.03;5016795;28;45524;-73
2021/08/14 02:08:48;;;;;;;;;2.25;2.00;;;;;26.92;41.33;102138.19;5016905;28;45384;-73
2021/08/14 02:11:35;;;;;;;;;2.25;2.25;;;;;26.95;41.48;102148.50;5016822;28;45439;-73
2021/08/14 02:14:02;;;;;;;;;2.00;2.00;;;;;26.94;41.36;102144.16;5014591;28;45308;-73
2021/08/14 02:16:29;;;;;;;;;1.75;1.25;;;;;26.91;41.82;102141.84;5016948;28;45358;-73
2021/08/14 02:18:54;;;;;;;;;3.50;3.50;;;;;26.90;41.65;102134.88;5016497;28;45360;-73
2021/08/14 02:21:20;;;;;;;;;2.25;2.25;;;;;26.83;41.35;102118.72;5016562;28;45314;-73
2021/08/14 02:23:46;;;;;;;;;3.00;3.00;;;;;26.92;41.48;102134.66;5017006;28;45432;-73
2021/08/14 02:26:11;;;;;;;;;2.00;2.00;;;;;26.94;41.67;102136.16;5016801;28;45634;-73
2021/08/14 02:28:37;;;;;;;;;4.00;2.00;;;;;26.95;41.31;102139.66;5017149;28;45585;-73
2021/08/14 02:31:04;;;;;;;;;2.50;2.25;;;;;26.94;41.16;102136.16;5016059;28;45290;-73
2021/08/14 02:33:30;;;;;;;;;3.50;3.00;;;;;26.91;41.16;102128.50;5016563;28;45524;-73
2021/08/14 02:35:56;;;;;;;;;3.25;3.25;;;;;26.95;41.24;102131.66;5016180;28;45410;-73
2021/08/14 02:38:21;;;;;;;;;4.00;2.50;;;;;26.91;41.39;102122.31;5016267;28;46516;-73
2021/08/14 02:40:47;;;;;;;;;3.00;3.00;;;;;26.90;41.12;102120.69;5017080;28;45430;-73
2021/08/14 02:43:17;;;;;;;;;3.25;2.25;;;;;26.96;41.34;102131.44;5016497;28;45457;-73
2021/08/14 02:45:43;;;;;;;;;4.25;2.75;;;;;26.93;40.97;102131.00;5015885;28;45303;-73
2021/08/14 02:48:09;;;;;;;;;2.50;2.50;;;;;26.94;41.41;102124.63;5016178;28;45430;-73
2021/08/14 02:50:34;;;;;;;;;3.50;2.00;;;;;26.74;41.48;102098.47;5016095;28;45481;-73
2021/08/14 02:53:00;;;;;;;;;5.00;3.75;;;;;26.87;41.10;102121.03;5016452;28;45347;-73
2021/08/14 02:55:25;;;;;;;;;3.25;3.25;;;;;26.91;41.34;102120.47;5016837;28;45560;-73
2021/08/14 02:57:51;;;;;;;;;3.00;3.00;;;;;26.93;41.30;102123.78;5015939;28;46127;-73
2021/08/14 03:00:17;;;;;;;;;3.75;3.00;;;;;26.95;41.56;102120.97;5015423;28;45436;-73
2021/08/14 03:02:42;;;;;;;;;2.00;2.00;;;;;26.88;41.28;102104.81;5016138;28;45481;-73
2021/08/14 03:05:08;;;;;;;;;2.25;2.25;;;;;26.97;41.33;102121.59;5016444;28;45322;-73
2021/08/14 03:07:34;;;;;;;;;2.00;2.00;;;;;26.92;41.40;102116.81;5016547;28;46668;-73
2021/08/14 03:09:59;;;;;;;;;4.00;3.25;;;;;26.94;41.27;102117.47;5015764;28;45430;-73
2021/08/14 03:12:26;;;;;;;;;3.75;3.00;;;;;26.92;41.53;102115.97;5016100;28;45299;-73
2021/08/14 03:14:51;;;;;;;;;2.00;2.00;;;;;26.94;41.48;102117.47;5015615;28;45652;-73
2021/08/14 03:17:17;;;;;;;;;2.00;2.00;;;;;26.89;41.02;102108.34;5015886;28;46081;-74
2021/08/14 03:19:42;;;;;;;;;3.00;2.00;;;;;26.93;41.38;102107.78;5016478;28;45640;-73
2021/08/14 03:22:08;;;;;;;;;3.00;3.00;;;;;26.87;41.39;102097.00;5015783;28;45306;-73
2021/08/14 03:24:34;;;;;;;;;3.25;3.25;;;;;26.90;41.11;102099.31;4998031;28;45510;-73
2021/08/14 03:26:59;;;;;;;;;2.50;2.50;;;;;26.88;40.97;102096.00;5015363;28;45513;-73
2021/08/14 03:29:24;;;;;;;;;3.00;3.00;;;;;26.86;40.90;102098.84;5015463;28;45324;-73
2021/08/14 03:31:50;;;;;;;;;3.00;3.00;;;;;26.87;41.25;102103.19;5016411;28;45480;-73
2021/08/14 03:34:15;;;;;;;;;3.50;2.75;;;;;26.90;41.24;102104.66;4997970;28;45460;-72
2021/08/14 03:36:41;;;;;;;;;4.00;3.75;;;;;26.84;41.26;102096.38;5015160;28;45428;-73
2021/08/14 03:39:06;;;;;;;;;2.00;2.00;;;;;26.91;41.34;102104.47;4997626;28;45437;-73
2021/08/14 03:41:32;;;;;;;;;2.75;2.75;;;;;26.83;41.33;102092.03;5015678;28;45496;-73
2021/08/14 03:43:57;;;;;;;;;1.25;1.25;;;;;26.89;41.61;102098.47;5015468;28;45453;-73
2021/08/14 03:46:22;;;;;;;;;3.25;2.00;;;;;26.82;41.35;102089.56;5015711;28;45434;-73
2021/08/14 03:48:48;;;;;;;;;3.00;3.00;;;;;26.89;41.47;102097.66;5015302;28;45530;-73
2021/08/14 03:51:13;;;;;;;;;1.75;1.75;;;;;26.86;41.59;102096.16;5015809;28;45584;-73
2021/08/14 03:53:38;;;;;;;;;4.00;2.25;;;;;26.91;41.07;102112.47;5015167;28;45410;-73
2021/08/14 03:56:04;;;;;;;;;3.75;3.75;;;;;26.82;41.21;102098.41;5015515;28;46485;-73
2021/08/14 03:58:34;;;;;;;;;3.50;3.50;;;;;26.73;41.12;102086.97;5015332;28;45370;-73
2021/08/14 04:01:00;;;;;;;;;1.00;1.00;;;;;26.89;41.60;102116.34;5015184;28;45448;-73
2021/08/14 04:03:25;;;;;;;;;2.25;2.00;;;;;26.82;41.50;102103.75;5015084;28;45462;-73
2021/08/14 04:05:51;;;;;;;;;3.00;3.00;;;;;26.88;41.17;102109.34;5015046;28;46148;-73
2021/08/14 04:08:19;;;;;;;;;2.00;2.00;;;;;26.84;41.31;102103.53;5015114;28;45402;-73
2021/08/14 04:10:45;;;;;;;;;2.75;2.75;;;;;26.93;41.21;102109.63;5014815;28;45368;-73
2021/08/14 04:13:10;;;;;;;;;3.00;2.00;;;;;26.87;41.13;102097.00;5014635;28;46044;-73
2021/08/14 04:15:35;;;;;;;;;2.50;2.50;;;;;26.88;41.08;102102.16;5014831;28;45339;-73
2021/08/14 04:18:01;;;;;;;;;3.00;3.00;;;;;26.89;41.50;102094.97;5014936;28;45319;-72
2021/08/14 04:20:26;;;;;;;;;2.00;2.00;;;;;26.83;41.58;102086.69;5015245;28;45864;-73
2021/08/14 04:22:51;;;;;;;;;2.50;2.50;;;;;26.91;40.94;102099.13;5015309;28;45220;-73
2021/08/14 04:25:17;;;;;;;;;4.00;2.00;;;;;26.91;41.10;102099.13;5014958;28;45385;-73
2021/08/14 04:27:42;;;;;;;;;2.25;2.25;;;;;26.87;41.13;102097.00;5014358;28;45320;-73
2021/08/14 04:30:08;;;;;;;;;2.50;2.50;;;;;26.87;40.93;102102.34;5014904;28;45243;-73
2021/08/14 04:32:35;;;;;;;;;3.25;3.25;;;;;26.91;41.50;102109.81;5014749;28;45596;-73
2021/08/14 04:35:09;;;;;;;;;3.25;3.25;;;;;26.93;40.85;102109.63;5014464;28;47551;-73
2021/08/14 04:37:35;;;;;;;;;2.00;2.00;;;;;26.90;41.18;102108.16;5013659;28;45374;-73
2021/08/14 04:40:01;;;;;;;;;1.00;1.00;;;;;26.89;41.18;102106.50;5014691;28;45480;-73
2021/08/14 04:42:26;;;;;;;;;2.00;2.00;;;;;26.86;41.51;102104.19;5014241;28;45537;-73
2021/08/14 04:44:52;;;;;;;;;4.00;2.00;;;;;26.94;41.22;102113.94;5014361;28;45842;-73
2021/08/14 04:47:17;;;;;;;;;2.00;2.00;;;;;26.88;41.36;102106.69;5014534;28;45418;-73
2021/08/14 04:49:43;;;;;;;;;2.75;2.75;;;;;26.89;41.30;102097.66;5015292;28;45409;-73
2021/08/14 04:52:08;;;;;;;;;2.00;2.00;;;;;26.87;41.05;102097.00;5014422;28;45555;-74
2021/08/14 04:54:33;;;;;;;;;2.50;2.50;;;;;26.86;41.37;102101.50;4996526;28;47061;-73
2021/08/14 04:56:59;;;;;;;;;2.00;2.00;;;;;26.91;40.82;102104.47;5013992;28;45527;-73
2021/08/14 04:59:24;;;;;;;;;2.50;2.50;;;;;26.90;41.41;102102.81;5014691;28;45457;-73
2021/08/14 05:01:49;;;;;;;;;3.00;3.00;;;;;26.85;41.04;102099.88;5015402;28;45380;-73
2021/08/14 05:04:15;;;;;;;;;1.75;1.75;;;;;26.90;41.31;102104.66;5014257;28;46439;-73
2021/08/14 05:06:41;;;;;;;;;2.75;2.75;;;;;26.82;40.90;102095.72;5014135;28;45264;-73
2021/08/14 05:09:06;;;;;;;;;2.50;2.50;;;;;26.93;41.40;102117.66;5014452;28;47902;-73
2021/08/14 05:11:32;;;;;;;;;4.50;4.50;;;;;26.91;41.17;102114.31;5013673;28;45596;-73
2021/08/14 05:13:57;;;;;;;;;4.50;3.25;;;;;26.84;41.49;102107.06;5014450;28;45790;-73
2021/08/14 05:16:25;;;;;;;;;4.00;3.00;;;;;26.87;41.39;102107.69;5013377;28;45239;-73
2021/08/14 05:18:51;;;;;;;;;3.25;1.50;;;;;26.91;40.88;102114.31;5014161;28;45380;-73
2021/08/14 05:21:16;;;;;;;;;2.00;2.00;;;;;26.67;41.25;102079.69;5014237;28;45409;-73
2021/08/14 05:23:42;;;;;;;;;2.25;2.25;;;;;26.82;41.31;102098.41;5017093;28;45456;-73
2021/08/14 05:26:07;;;;;;;;;2.00;2.00;;;;;26.84;41.30;102106.22;5017229;28;45378;-73
2021/08/14 05:28:32;;;;;;;;;2.00;1.00;;;;;26.88;41.23;102120.03;5018360;28;45492;-73
2021/08/14 05:30:58;;;;;;;;;4.00;3.00;;;;;26.89;40.97;102116.34;5017487;28;45528;-73
2021/08/14 05:33:23;;;;;;;;;1.00;1.00;;;;;26.80;41.53;102119.13;5017488;28;46473;-73
2021/08/14 05:35:48;;;;;;;;;3.50;2.50;;;;;26.82;41.40;102111.75;5017160;28;45310;-74
2021/08/14 05:38:15;;;;;;;;;3.75;3.00;;;;;26.89;41.43;102127.03;5017686;28;45417;-73
2021/08/14 05:40:40;;;;;;;;;5.25;4.00;;;;;26.84;40.92;102117.72;5017697;28;45509;-73
2021/08/14 05:43:05;;;;;;;;;2.00;2.00;;;;;26.86;41.17;102122.88;5017174;28;46287;-73
2021/08/14 05:45:31;;;;;;;;;3.75;3.25;;;;;26.91;40.73;102127.66;4999387;28;45364;-73
2021/08/14 05:47:56;;;;;;;;;2.00;2.00;;;;;26.90;41.36;102123.34;5017101;28;45491;-74
2021/08/14 05:50:22;;;;;;;;;3.00;3.00;;;;;26.84;41.19;102111.56;5016087;28;45503;-73
2021/08/14 05:52:47;;;;;;;;;3.00;1.50;;;;;26.84;40.80;102112.38;5017721;28;46619;-73
2021/08/14 05:55:13;;;;;;;;;2.00;2.00;;;;;26.85;41.13;102115.91;5016780;28;45463;-73
2021/08/14 05:57:38;;;;;;;;;3.25;3.00;;;;;26.85;41.08;102116.69;5017206;28;45307;-73
2021/08/14 06:00:05;;;;;;;;;3.50;2.00;;;;;26.90;41.11;102118.00;5016964;28;45305;-73
2021/08/14 06:02:30;;;;;;;;;2.25;2.25;;;;;26.89;41.33;102113.66;5016934;28;45478;-73
2021/08/14 06:04:56;;;;;;;;;2.67;2.67;;;;;26.89;40.88;102113.66;5017166;28;45536;-73
2021/08/14 06:07:22;;;;;;;;;3.00;3.00;;;;;26.90;41.37;102110.84;5017490;28;45501;-73
2021/08/14 06:09:47;;;;;;;;;2.50;2.50;;;;;26.86;41.05;102104.19;5016633;28;45485;-73
2021/08/14 06:12:12;;;;;;;;;3.75;2.50;;;;;26.90;41.15;102116.19;5016689;28;45490;-73
2021/08/14 06:14:38;;;;;;;;;3.50;3.50;;;;;26.87;41.05;102105.84;4999097;28;45407;-73
2021/08/14 06:17:03;;;;;;;;;4.00;4.00;;;;;26.92;41.02;102124.81;5017341;28;45304;-74
2021/08/14 06:19:29;;;;;;;;;2.50;2.00;;;;;26.92;41.24;102127.50;5017472;28;45629;-73
2021/08/14 06:21:55;;;;;;;;;3.00;3.00;;;;;26.92;41.24;102126.66;5016646;28;45623;-73
2021/08/14 06:24:20;;;;;;;;;3.50;3.50;;;;;26.90;40.88;102118.00;5016087;28;45346;-73
2021/08/14 06:26:45;;;;;;;;;3.75;3.75;;;;;26.91;40.88;102119.66;5016710;28;45597;-73
2021/08/14 06:29:11;;;;;;;;;4.25;3.25;;;;;26.94;41.06;102112.13;5016699;28;45508;-74
2021/08/14 06:31:36;;;;;;;;;4.25;3.00;;;;;26.94;41.06;102116.63;5016964;28;45565;-74
2021/08/14 06:34:01;;;;;;;;;3.25;2.75;;;;;26.88;41.42;102098.69;5015692;28;45824;-74
2021/08/14 06:36:27;;;;;;;;;2.00;2.00;;;;;26.95;41.08;102103.09;5016337;28;45665;-74
2021/08/14 06:38:52;;;;;;;;;1.00;1.00;;;;;26.89;41.30;102100.31;5016226;28;45523;-74
2021/08/14 06:41:17;;;;;;;;;2.50;2.50;;;;;26.92;41.18;102094.63;4998499;28;47213;-74
2021/08/14 06:43:43;;;;;;;;;3.00;3.00;;;;;26.87;40.91;102092.50;5017006;28;45306;-74
2021/08/14 06:46:08;;;;;;;;;4.75;2.00;;;;;26.92;40.81;102094.63;5016243;28;45243;-74
2021/08/14 06:48:35;;;;;;;;;4.50;3.00;;;;;26.89;40.97;102097.66;5016461;28;47254;-74
2021/08/14 06:51:01;;;;;;;;;2.00;2.00;;;;;26.94;41.15;102103.25;5016057;28;45636;-74
2021/08/14 06:53:26;;;;;;;;;3.25;3.25;;;;;26.94;41.22;102103.25;5015808;28;45412;-74
2021/08/14 06:55:51;;;;;;;;;2.00;2.00;;;;;26.95;41.23;102104.94;5016813;28;45489;-74
2021/08/14 06:58:17;;;;;;;;;2.00;2.00;;;;;26.93;40.93;102101.63;5016214;28;45500;-74
2021/08/14 07:00:42;;;;;;;;;1.00;1.00;;;;;26.95;40.72;102102.28;5015817;28;46405;-74
2021/08/14 07:03:08;;;;;;;;;2.50;2.00;;;;;26.92;40.93;102099.97;5016158;28;47113;-74
2021/08/14 07:05:37;;;;;;;;;3.00;3.00;;;;;26.96;41.00;102110.09;5016274;28;45394;-74
2021/08/14 07:08:02;;;;;;;;;2.00;2.00;;;;;26.94;40.85;102104.09;5015690;28;45493;-74
2021/08/14 07:10:28;;;;;;;;;1.00;1.00;;;;;26.88;41.34;102093.34;4998404;28;45629;-74
2021/08/14 07:12:53;;;;;;;;;2.50;2.00;;;;;26.96;40.93;102099.41;5015835;28;45443;-74
2021/08/14 07:15:18;;;;;;;;;2.25;2.00;;;;;26.90;40.83;102096.66;5016030;28;45369;-74
2021/08/14 07:17:44;;;;;;;;;3.00;3.00;;;;;26.91;40.79;102103.63;5016201;28;45512;-74
2021/08/14 07:20:10;;;;;;;;;3.75;2.50;;;;;26.92;40.73;102099.97;5015670;28;46573;-72
2021/08/14 07:22:35;;;;;;;;;3.25;3.00;;;;;26.97;41.28;102105.56;5016484;28;45266;-74
2021/08/14 07:25:00;;;;;;;;;2.25;2.25;;;;;26.95;40.93;102110.28;5015728;28;45449;-73
2021/08/14 07:27:26;;;;;;;;;2.25;2.25;;;;;26.97;40.84;102113.59;4997815;28;45801;-73
2021/08/14 07:29:52;;;;;;;;;3.00;2.00;;;;;26.87;40.74;102086.31;5015736;28;45502;-74
2021/08/14 07:32:17;;;;;;;;;2.00;2.00;;;;;26.88;40.97;102093.34;5015533;28;45448;-74
2021/08/14 07:34:42;;;;;;;;;2.75;2.00;;;;;26.95;40.95;102099.59;4998164;28;45400;-74
2021/08/14 07:37:08;;;;;;;;;1.25;1.25;;;;;26.92;41.21;102097.28;5015485;28;45589;-74
2021/08/14 07:39:33;;;;;;;;;4.00;3.00;;;;;26.98;41.07;102111.75;5015432;28;46539;-73
2021/08/14 07:41:59;;;;;;;;;5.00;3.00;;;;;26.96;40.92;102111.91;5015480;28;45270;-73
2021/08/14 07:44:24;;;;;;;;;2.00;2.00;;;;;26.98;40.85;102111.75;5015638;28;45306;-73
2021/08/14 07:46:49;;;;;;;;;5.25;2.75;;;;;26.98;41.06;102106.41;5014838;28;45494;-73
2021/08/14 07:49:15;;;;;;;;;3.00;3.00;;;;;26.96;41.36;102104.75;5014823;28;46705;-72
2021/08/14 07:51:40;;;;;;;;;4.75;2.50;;;;;26.91;41.26;102092.94;5015064;28;45325;-73
2021/08/14 07:54:06;;;;;;;;;2.50;2.00;;;;;26.95;41.23;102100.44;5015300;28;46190;-73
2021/08/14 07:56:31;;;;;;;;;3.50;2.25;;;;;26.98;40.90;102098.41;5015443;28;45490;-73
2021/08/14 07:58:56;;;;;;;;;8.00;4.25;;;;;26.94;40.84;102097.94;4997444;28;47849;-72
2021/08/14 08:01:22;;;;;;;;;1.75;1.75;;;;;26.92;40.79;102083.94;5015549;28;45342;-73
2021/08/14 08:03:47;;;;;;;;;1.25;1.25;;;;;26.93;41.35;102089.09;5014870;28;45283;-73
2021/08/14 08:06:12;;;;;;;;;2.75;2.50;;;;;26.99;41.00;102086.69;5014933;28;45544;-73
2021/08/14 08:08:38;;;;;;;;;2.25;2.25;;;;;26.95;40.59;102086.25;4997221;28;47266;-73
2021/08/14 08:11:04;;;;;;;;;3.00;2.00;;;;;27.01;41.21;102090.03;5015213;28;45464;-73
2021/08/14 08:13:29;;;;;;;;;3.00;3.00;;;;;26.94;41.03;102081.91;5015622;28;45257;-73
2021/08/14 08:15:54;;;;;;;;;3.50;3.50;;;;;26.95;40.88;102079.06;5015254;28;45626;-74
2021/08/14 08:18:20;;;;;;;;;2.50;2.50;;;;;27.01;40.84;102096.19;5014404;28;46275;-73
2021/08/14 08:20:45;;;;;;;;;4.00;4.00;;;;;26.89;41.20;102078.97;5014963;28;45513;-73
2021/08/14 08:23:11;;;;;;;;;3.00;3.00;;;;;26.95;41.17;102076.41;5015043;28;45586;-73
2021/08/14 08:25:36;;;;;;;;;1.50;1.50;;;;;26.98;41.00;102085.88;5015675;28;45310;-73
2021/08/14 08:28:03;;;;;;;;;3.75;2.75;;;;;26.99;41.21;102092.03;5014467;28;46440;-73
2021/08/14 08:30:31;;;;;;;;;3.00;3.00;;;;;27.00;41.07;102091.03;5014598;28;45716;-73
2021/08/14 08:32:57;;;;;;;;;6.25;4.00;;;;;26.98;41.00;102085.88;5014471;28;45546;-73
2021/08/14 08:35:23;;;;;;;;;3.75;2.00;;;;;27.02;40.94;102089.84;5014572;28;45511;-73
2021/08/14 08:37:49;;;;;;;;;1.25;1.25;;;;;27.02;40.94;102080.97;4997760;28;47447;-73
2021/08/14 08:40:16;;;;;;;;;3.00;3.00;;;;;26.97;41.34;102076.19;5014460;28;45635;-73
2021/08/14 08:42:44;;;;;;;;;2.25;2.00;;;;;27.02;40.84;102087.16;5014601;28;45445;-73
2021/08/14 08:45:10;;;;;;;;;2.00;2.00;;;;;26.98;41.06;102077.88;5014567;28;45620;-73
2021/08/14 08:47:42;;;;;;;;;2.75;2.75;;;;;27.01;41.04;102077.47;5014060;28;45461;-73
2021/08/14 08:50:09;;;;;;;;;3.75;3.00;;;;;27.00;40.66;102081.19;5014502;28;45553;-73
2021/08/14 08:52:35;;;;;;;;;3.50;2.00;;;;;26.99;40.85;102071.50;5015233;28;45338;-73
2021/08/14 08:55:01;;;;;;;;;2.50;2.50;;;;;27.01;40.88;102076.69;5014464;28;45478;-73
2021/08/14 08:57:26;;;;;;;;;3.00;2.00;;;;;26.96;41.10;102066.53;5015682;28;46061;-73
2021/08/14 08:59:52;;;;;;;;;1.75;1.75;;;;;27.00;40.67;102069.66;5017843;28;45395;-73
2021/08/14 09:02:33;;;;;;;;;2.25;2.25;;;;;27.03;41.05;102070.13;5017871;28;45453;-73
2021/08/14 09:05:05;;;;;;;;;2.00;2.00;;;;;27.03;41.10;102067.47;5015321;28;45458;-73
2021/08/14 09:07:31;;;;;;;;;4.00;2.50;;;;;27.03;41.17;102062.13;5018295;28;45380;-75
2021/08/14 09:09:58;;;;;;;;;2.75;2.75;;;;;27.02;40.99;102062.28;5017892;28;45609;-76
2021/08/14 09:12:31;;;;;;;;;1.75;1.75;;;;;26.97;41.11;102052.16;5017769;28;45344;-74
2021/08/14 09:14:57;;;;;;;;;3.50;3.50;;;;;26.96;40.88;102051.34;5017837;28;45331;-73
2021/08/14 09:17:27;;;;;;;;;2.00;2.00;;;;;27.01;40.99;102058.78;5017231;28;46400;-73
2021/08/14 09:20:26;;;;;;;;;2.00;2.00;;;;;27.03;41.27;102053.28;5018098;28;45565;-73
2021/08/14 09:23:04;;;;;;;;;3.00;3.00;;;;;26.98;41.05;102048.50;5013841;28;45505;-74
2021/08/14 09:25:39;;;;;;;;;3.00;3.00;;;;;27.05;41.11;102054.75;5017827;28;45489;-74
2021/08/14 09:28:05;;;;;;;;;3.00;3.00;;;;;27.05;41.07;102048.56;5017208;28;46282;-74
2021/08/14 09:30:46;;;;;;;;;2.00;2.00;;;;;27.06;40.85;102056.38;5017208;28;45448;-73
2021/08/14 09:33:13;;;;;;;;;3.75;3.75;;;;;27.04;40.98;102046.91;5017538;28;45549;-73
2021/08/14 09:35:43;;;;;;;;;1.75;1.00;;;;;26.95;40.95;102033.66;5017153;28;45390;-73
2021/08/14 09:38:17;;;;;;;;;1.75;1.25;;;;;27.01;41.32;102033.94;5017453;28;46551;-73
2021/08/14 09:40:45;;;;;;;;;1.75;1.75;;;;;27.03;41.13;102027.41;5017758;28;45254;-74
2021/08/14 09:43:13;;;;;;;;;2.00;2.00;;;;;27.07;41.27;102038.53;5017574;28;45584;-75
2021/08/14 09:45:51;;;;;;;;;2.00;2.00;;;;;27.05;40.52;102029.88;5016827;28;45736;-74
2021/08/14 09:48:19;;;;;;;;;2.75;2.75;;;;;27.05;41.18;102032.53;5016973;28;46476;-75
2021/08/14 09:50:45;;;;;;;;;1.50;1.50;;;;;27.09;40.82;102036.50;5017308;28;45588;-75
2021/08/14 09:53:19;;;;;;;;;1.75;1.75;;;;;27.05;40.78;102024.53;5017310;28;45560;-72
2021/08/14 09:55:49;;;;;;;;;1.25;1.00;;;;;27.09;40.82;102028.47;5017895;28;45362;-74
2021/08/14 09:58:17;;;;;;;;;2.75;2.75;;;;;27.09;41.22;102033.00;5016806;28;45806;-74
2021/08/14 10:00:44;;;;;;;;;2.00;2.00;;;;;27.06;41.14;102032.34;5016387;28;45499;-74
2021/08/14 10:03:13;;;;;;;;;2.00;2.00;;;;;27.08;41.03;102032.19;5017232;28;45504;-74
2021/08/14 10:05:39;;;;;;;;;3.00;3.00;;;;;27.04;41.11;102028.22;5017120;28;45453;-74
2021/08/14 10:08:05;;;;;;;;;2.00;2.00;;;;;27.08;40.75;102026.84;5016522;28;45520;-74
2021/08/14 10:10:32;;;;;;;;;3.00;3.00;;;;;27.05;41.07;102024.53;5016694;28;45312;-74
2021/08/14 10:12:58;;;;;;;;;6.00;3.00;;;;;27.09;41.07;102025.81;5016920;28;45440;-74
2021/08/14 10:15:24;;;;;;;;;3.00;3.00;;;;;27.12;40.74;102027.28;5016544;28;45399;-74
2021/08/14 10:17:50;;;;;;;;;3.75;3.25;;;;;27.12;40.67;102033.44;5016848;28;46922;-74
2021/08/14 10:20:15;;;;;;;;;4.75;2.00;;;;;27.09;41.24;102019.66;5017025;28;45398;-74
2021/08/14 10:22:41;;;;;;;;;3.00;3.00;;;;;27.06;40.53;102010.97;5017381;28;45963;-74
2021/08/14 10:25:15;;;;;;;;;2.50;2.00;;;;;27.07;40.77;102017.16;5016667;28;47605;-74
2021/08/14 10:27:59;;;;;;;;;6.00;2.00;;;;;27.05;40.95;102009.34;5016337;28;45603;-74
2021/08/14 10:30:39;;;;;;;;;3.00;3.00;;;;;27.05;40.81;102006.66;5016056;28;45355;-74
2021/08/14 10:33:06;;;;;;;;;2.00;2.00;;;;;26.93;40.73;101984.94;5016738;28;45303;-74
2021/08/14 10:35:36;;;;;;;;;3.50;3.00;;;;;27.10;40.82;102007.94;4998703;28;45229;-74
2021/08/14 10:38:02;;;;;;;;;3.00;3.00;;;;;27.10;41.08;101999.94;5016446;28;45517;-74
2021/08/14 10:41:07;;;;;;;;;3.00;2.00;;;;;27.08;40.91;101994.78;5016705;28;45416;-74
2021/08/14 10:43:51;;;;;;;;;5.00;2.00;;;;;27.15;40.70;102002.91;4917133;28;45600;-74
2021/08/14 10:46:31;;;;;;;;;2.50;2.50;;;;;27.14;40.83;101999.41;4900758;28;45749;-74
2021/08/14 10:48:58;;;;;;;;;2.00;2.00;;;;;27.09;41.14;101995.63;4916493;28;45675;-74
2021/08/14 10:51:47;;;;;;;;;3.00;2.00;;;;;27.10;40.55;101995.41;4916586;28;45515;-74
2021/08/14 10:54:33;;;;;;;;;2.75;2.50;;;;;26.98;40.83;101976.38;4916617;28;45468;-73
2021/08/14 10:57:08;;;;;;;;;2.25;2.00;;;;;27.11;41.04;101989.06;4841346;29;45521;-73
2021/08/14 10:59:39;;;;;;;;;3.00;3.00;;;;;27.14;40.77;101986.03;4840964;29;45337;-74
2021/08/14 11:02:10;;;;;;;;;3.00;2.00;;;;;27.15;40.61;101984.19;4841223;29;45541;-74
2021/08/14 11:04:39;;;;;;;;;4.33;1.67;;;;;27.14;41.27;101977.22;4840387;29;45341;-74
2021/08/14 11:07:17;;;;;;;;;2.00;2.00;;;;;27.14;40.74;101986.03;4841148;29;45555;-74
2021/08/14 11:09:43;;;;;;;;;3.00;2.00;;;;;27.11;40.89;101981.06;4840696;29;46448;-74
2021/08/14 11:12:09;;;;;;;;;2.50;2.50;;;;;27.14;40.69;101977.22;4843088;29;46179;-74
2021/08/14 11:14:44;;;;;;;;;1.50;1.50;;;;;27.16;40.71;101985.88;4891112;28;45460;-74
2021/08/14 11:17:11;;;;;;;;;2.00;2.00;;;;;27.15;40.94;101985.03;4934349;28;45723;-74
2021/08/14 11:19:57;;;;;;;;;5.00;2.00;;;;;27.15;40.84;101976.19;4931441;28;45434;-74
2021/08/14 11:22:41;;;;;;;;;3.00;3.00;;;;;27.16;40.52;101970.69;4931465;28;45367;-74
2021/08/14 11:25:31;;;;;;;;;2.75;2.00;;;;;27.14;41.13;101967.34;4931098;28;45673;-74